Time;durP1;ratioP1;P1;durP2;ratioP2;P2;SDS_P1;SDS_P2;PMS_P1;PMS_P2;Temp;Humidity;BMP_temperature;BMP_pressure;BME280_temperature;BME280_humidity;BME280_pressure;Samples;Min_cycle;Max_cycle;Signal;HPM_P1;HPM_P2
2023/01/30 00:01:31;;;;;;;11.50;6.65;;;18.60;64.90;;;;;;4482461;31;20137;-69
2023/01/30 00:03:57;;;;;;;12.07;6.70;;;18.60;64.90;;;;;;4489393;31;20194;-69
2023/01/30 00:06:24;;;;;;;11.70;6.10;;;18.60;64.90;;;;;;4483862;31;20210;-69
2023/01/30 00:08:50;;;;;;;12.15;6.18;;;18.60;64.90;;;;;;4497563;31;20124;-69
2023/01/30 00:11:21;;;;;;;12.93;6.95;;;18.60;64.90;;;;;;4508027;31;20132;-69
2023/01/30 00:13:48;;;;;;;14.07;6.60;;;18.60;64.90;;;;;;4496937;31;20246;-69
2023/01/30 00:16:15;;;;;;;9.60;5.80;;;18.60;64.90;;;;;;4495458;31;20275;-69
2023/01/30 00:18:41;;;;;;;10.73;5.97;;;18.50;64.90;;;;;;4496985;31;20143;-69
2023/01/30 00:21:09;;;;;;;10.50;6.43;;;18.50;64.80;;;;;;4483748;31;20143;-69
2023/01/30 00:23:36;;;;;;;9.80;5.75;;;18.50;64.80;;;;;;4496219;31;20590;-69
2023/01/30 00:26:03;;;;;;;10.23;5.88;;;18.50;65.70;;;;;;4484806;31;20125;-69
2023/01/30 00:28:29;;;;;;;10.60;5.68;;;18.50;64.80;;;;;;4495383;31;20144;-69
2023/01/30 00:30:55;;;;;;;9.85;5.07;;;18.50;64.80;;;;;;4495253;31;20139;-69
2023/01/30 00:33:23;;;;;;;9.55;5.82;;;18.40;64.80;;;;;;4496445;31;20226;-69
2023/01/30 00:35:51;;;;;;;10.70;5.72;;;18.40;64.80;;;;;;4494870;31;20151;-69
2023/01/30 00:38:17;;;;;;;9.00;5.00;;;18.40;64.80;;;;;;4494391;31;20140;-69
2023/01/30 00:40:43;;;;;;;10.13;5.10;;;18.40;64.80;;;;;;4496968;31;20125;-69
2023/01/30 00:48:49;;;;;;;11.23;4.63;;;18.40;64.80;;;;;;4497483;31;20121;-69
2023/01/30 00:51:15;;;;;;;9.90;5.15;;;18.40;64.80;;;;;;4496936;31;20596;-69
2023/01/30 00:53:41;;;;;;;9.43;4.82;;;18.40;64.80;;;;;;4496824;31;20132;-69
2023/01/30 00:56:07;;;;;;;9.38;4.72;;;18.40;64.80;;;;;;4496159;31;20129;-68
2023/01/30 00:58:32;;;;;;;8.77;5.18;;;18.30;64.80;;;;;;4480853;31;20133;-69
2023/01/30 01:00:58;;;;;;;9.70;5.38;;;18.30;64.70;;;;;;4493066;31;20203;-69
2023/01/30 01:03:24;;;;;;;7.70;4.10;;;18.30;64.70;;;;;;4495948;31;20182;-69
2023/01/30 01:05:50;;;;;;;8.35;4.65;;;18.30;64.80;;;;;;4497508;31;20113;-69
2023/01/30 01:08:16;;;;;;;8.38;4.70;;;18.30;64.70;;;;;;4493028;31;20124;-69
2023/01/30 01:10:42;;;;;;;7.72;4.80;;;18.30;64.70;;;;;;4495215;31;20602;-69
2023/01/30 01:13:09;;;;;;;8.75;4.35;;;18.30;64.80;;;;;;4497371;31;20663;-69
2023/01/30 01:15:35;;;;;;;8.73;4.75;;;18.30;64.80;;;;;;4508066;31;20605;-69
2023/01/30 01:18:01;;;;;;;6.68;4.07;;;18.30;64.80;;;;;;4497273;31;20140;-69
2023/01/30 01:20:27;;;;;;;11.63;4.40;;;18.30;64.80;;;;;;4495784;31;20140;-69
2023/01/30 01:22:54;;;;;;;7.82;4.07;;;18.20;64.70;;;;;;4497615;31;20131;-69
2023/01/30 01:25:21;;;;;;;9.55;4.60;;;18.20;64.70;;;;;;4492220;31;20125;-69
2023/01/30 01:27:48;;;;;;;7.63;3.92;;;18.20;64.80;;;;;;4495490;31;20194;-69
2023/01/30 01:30:14;;;;;;;7.90;4.10;;;18.20;64.70;;;;;;4509176;31;20152;-69
2023/01/30 01:32:43;;;;;;;9.73;4.40;;;18.20;64.70;;;;;;4494273;31;20135;-69
2023/01/30 01:35:10;;;;;;;9.32;4.35;;;18.20;64.80;;;;;;4497364;31;20137;-69
2023/01/30 01:37:35;;;;;;;7.25;4.15;;;18.20;64.70;;;;;;4495671;31;20133;-69
2023/01/30 01:42:46;;;;;;;7.82;3.97;;;18.20;64.70;;;;;;4506969;31;20131;-69
2023/01/30 01:45:19;;;;;;;6.80;4.05;;;18.20;64.70;;;;;;4495540;31;20113;-69
2023/01/30 01:48:04;;;;;;;6.93;3.53;;;18.10;64.70;;;;;;4496408;31;20163;-68
2023/01/30 01:50:58;;;;;;;7.82;4.10;;;18.10;64.70;;;;;;4487188;32;20129;-69
2023/01/30 01:53:28;;;;;;;11.35;3.97;;;18.10;64.70;;;;;;4495461;32;20136;-69
2023/01/30 01:55:57;;;;;;;7.78;3.60;;;18.10;64.70;;;;;;4496141;32;20128;-69
2023/01/30 01:58:35;;;;;;;7.82;3.55;;;18.10;64.70;;;;;;4494963;31;20132;-69
2023/01/30 02:01:01;;;;;;;6.68;3.22;;;18.10;64.70;;;;;;4496379;32;20129;-69
2023/01/30 02:03:31;;;;;;;7.57;3.28;;;18.10;64.70;;;;;;4480513;32;20120;-69
2023/01/30 02:06:01;;;;;;;6.47;3.65;;;18.10;64.70;;;;;;4495588;31;20143;-69
2023/01/30 02:08:38;;;;;;;5.95;3.55;;;18.10;64.70;;;;;;4507542;31;20139;-69
2023/01/30 02:11:10;;;;;;;5.80;3.15;;;18.10;64.70;;;;;;4492493;32;20144;-69
2023/01/30 02:13:36;;;;;;;7.82;3.80;;;18.00;64.60;;;;;;4496642;32;20120;-68
2023/01/30 02:16:04;;;;;;;6.13;2.95;;;18.00;64.70;;;;;;4494902;32;20120;-69
2023/01/30 02:18:31;;;;;;;6.50;3.38;;;18.00;64.60;;;;;;4496802;31;20179;-69
2023/01/30 02:21:25;;;;;;;5.72;3.05;;;18.00;64.70;;;;;;4495613;31;20132;-69
2023/01/30 02:24:25;;;;;;;6.13;3.35;;;18.00;64.60;;;;;;4494574;32;20124;-69
2023/01/30 02:27:10;;;;;;;6.03;3.55;;;18.00;64.60;;;;;;4505147;31;20125;-68
2023/01/30 02:30:04;;;;;;;7.70;3.28;;;18.00;64.60;;;;;;4507129;31;20116;-69
2023/01/30 02:32:37;;;;;;;7.05;3.22;;;18.00;64.60;;;;;;4494478;32;20270;-69
2023/01/30 02:35:16;;;;;;;6.10;3.22;;;18.00;64.70;;;;;;4496784;32;20140;-68
2023/01/30 02:37:57;;;;;;;5.28;2.80;;;18.00;64.70;;;;;;4496752;31;20151;-69
2023/01/30 02:40:43;;;;;;;5.43;2.92;;;17.90;64.60;;;;;;4499150;31;20199;-68
2023/01/30 02:43:34;;;;;;;5.85;2.92;;;17.90;64.50;;;;;;4499693;31;20133;-69
2023/01/30 02:46:04;;;;;;;5.80;3.15;;;17.90;64.60;;;;;;4505874;31;20116;-68
2023/01/30 02:48:56;;;;;;;5.70;3.10;;;17.90;64.60;;;;;;4499629;31;20482;-69
2023/01/30 02:51:30;;;;;;;5.65;2.60;;;17.90;64.50;;;;;;4499005;31;20352;-69
2023/01/30 02:53:58;;;;;;;8.07;2.78;;;17.90;64.60;;;;;;4498051;31;20139;-69
2023/01/30 02:56:24;;;;;;;6.40;3.10;;;17.90;64.60;;;;;;4499128;31;20291;-69
2023/01/30 02:59:05;;;;;;;5.78;3.03;;;17.90;64.60;;;;;;4497959;31;20120;-69
2023/01/30 03:01:36;;;;;;;6.35;2.95;;;17.90;64.60;;;;;;4499287;31;20183;-69
2023/01/30 03:04:17;;;;;;;5.63;2.47;;;17.90;64.60;;;;;;4498745;31;20116;-69
2023/01/30 03:07:07;;;;;;;4.80;2.90;;;17.80;64.50;;;;;;4497807;31;20125;-69
2023/01/30 03:09:48;;;;;;;5.70;2.65;;;17.80;64.50;;;;;;4499556;31;20159;-69
2023/01/30 03:12:24;;;;;;;6.82;3.15;;;17.80;64.50;;;;;;4510327;31;21991;-69
2023/01/30 03:14:55;;;;;;;7.28;2.75;;;17.80;64.50;;;;;;4498441;31;20193;-69
2023/01/30 03:17:23;;;;;;;6.90;3.00;;;17.80;64.50;;;;;;4497651;31;20141;-69
2023/01/30 03:19:51;;;;;;;5.63;2.72;;;17.80;64.50;;;;;;4497918;31;20163;-69
2023/01/30 03:22:19;;;;;;;6.85;2.70;;;17.80;64.60;;;;;;4496487;31;20689;-69
2023/01/30 03:24:45;;;;;;;4.22;2.33;;;17.80;64.50;;;;;;4497712;31;20120;-69
2023/01/30 03:27:12;;;;;;;5.10;2.42;;;17.80;64.50;;;;;;4498966;31;20128;-69
2023/01/30 03:29:38;;;;;;;8.25;2.78;;;17.80;64.50;;;;;;4496970;31;20147;-69
2023/01/30 03:32:04;;;;;;;6.05;2.47;;;17.80;64.50;;;;;;4498074;31;20186;-69
2023/01/30 03:34:31;;;;;;;6.32;2.60;;;17.80;64.50;;;;;;4510706;31;20124;-69
2023/01/30 03:36:56;;;;;;;7.70;2.65;;;17.70;64.50;;;;;;4497483;31;20282;-69
2023/01/30 03:39:23;;;;;;;5.68;2.50;;;17.70;64.50;;;;;;4496883;31;20139;-69
2023/01/30 03:41:50;;;;;;;7.03;3.15;;;17.70;64.50;;;;;;4497395;31;20144;-69
2023/01/30 03:44:16;;;;;;;6.30;2.70;;;17.70;64.50;;;;;;4510643;31;20121;-69
2023/01/30 03:46:42;;;;;;;5.53;2.53;;;17.70;64.50;;;;;;4496272;31;20135;-68
2023/01/30 03:49:08;;;;;;;6.57;2.40;;;17.70;64.50;;;;;;4496853;31;20136;-69
2023/01/30 03:51:34;;;;;;;6.45;2.47;;;17.70;64.50;;;;;;4498713;31;20121;-68
2023/01/30 03:54:00;;;;;;;5.40;2.50;;;17.70;64.50;;;;;;4495969;31;20125;-69
2023/01/30 03:56:26;;;;;;;7.15;3.25;;;17.70;64.50;;;;;;4498414;31;20147;-69
2023/01/30 03:58:52;;;;;;;5.88;2.40;;;17.70;64.50;;;;;;4496900;31;20120;-69
2023/01/30 04:01:18;;;;;;;6.47;2.53;;;17.70;64.50;;;;;;4498662;31;20145;-69
2023/01/30 04:03:44;;;;;;;5.55;2.63;;;17.60;64.40;;;;;;4497514;31;20640;-69
2023/01/30 04:06:09;;;;;;;5.55;2.40;;;17.60;64.50;;;;;;4497823;31;20143;-69
2023/01/30 04:08:35;;;;;;;5.55;2.50;;;17.60;64.50;;;;;;4498207;31;20701;-69
2023/01/30 04:11:01;;;;;;;6.40;2.40;;;17.60;64.40;;;;;;4509124;31;20190;-69
2023/01/30 04:13:27;;;;;;;6.07;2.85;;;17.60;64.50;;;;;;4510660;31;20187;-69
2023/01/30 04:16:11;;;;;;;7.30;2.58;;;17.60;64.50;;;;;;4496612;31;20580;-69
2023/01/30 04:18:37;;;;;;;6.13;2.92;;;17.60;64.50;;;;;;4498312;31;20241;-69
2023/01/30 04:21:03;;;;;;;4.95;2.38;;;17.60;64.50;;;;;;4509434;31;20262;-69
2023/01/30 04:23:29;;;;;;;6.40;2.40;;;17.60;64.50;;;;;;4497470;31;20494;-69
2023/01/30 04:25:55;;;;;;;5.30;2.42;;;17.60;64.50;;;;;;4496022;31;20121;-68
2023/01/30 04:28:21;;;;;;;4.20;2.10;;;17.60;65.50;;;;;;4508948;31;20266;-69
2023/01/30 04:30:46;;;;;;;5.60;2.40;;;17.60;64.50;;;;;;4498173;31;20166;-69
2023/01/30 04:33:12;;;;;;;7.88;2.83;;;17.60;64.50;;;;;;4492941;31;20119;-69
2023/01/30 04:35:38;;;;;;;10.02;3.38;;;17.50;64.50;;;;;;4491700;31;20139;-68
2023/01/30 04:38:04;;;;;;;7.70;2.90;;;17.50;64.50;;;;;;4509219;31;20136;-69
2023/01/30 04:40:29;;;;;;;5.78;2.28;;;17.50;64.50;;;;;;4497392;31;20132;-69
2023/01/30 04:42:55;;;;;;;5.95;2.28;;;17.50;64.60;;;;;;4497676;31;20121;-69
2023/01/30 04:45:21;;;;;;;7.13;2.17;;;17.50;64.50;;;;;;4492861;31;20121;-69
2023/01/30 04:47:47;;;;;;;6.30;2.45;;;17.50;64.60;;;;;;4505103;31;20135;-69
2023/01/30 04:50:13;;;;;;;9.38;3.17;;;17.50;64.50;;;;;;4496108;31;20138;-69
2023/01/30 04:52:39;;;;;;;5.97;2.53;;;17.50;64.60;;;;;;4497462;31;20120;-69
2023/01/30 04:55:05;;;;;;;5.82;2.45;;;17.50;64.50;;;;;;4495392;31;20143;-69
2023/01/30 04:57:31;;;;;;;5.55;2.35;;;17.50;64.50;;;;;;4509182;31;20147;-69
2023/01/30 04:59:57;;;;;;;7.45;2.60;;;17.50;64.60;;;;;;4496034;31;20214;-69
2023/01/30 05:02:23;;;;;;;8.38;2.67;;;17.50;64.60;;;;;;4492663;31;20259;-69
2023/01/30 05:04:49;;;;;;;6.72;2.40;;;17.50;64.60;;;;;;4492306;31;20190;-69
2023/01/30 05:07:15;;;;;;;7.47;2.85;;;17.40;64.50;;;;;;4507949;31;20144;-69
2023/01/30 05:09:41;;;;;;;6.38;2.22;;;17.40;64.50;;;;;;4497745;31;20120;-69
2023/01/30 05:12:06;;;;;;;6.53;2.30;;;17.40;64.50;;;;;;4492615;31;20109;-69
2023/01/30 05:14:33;;;;;;;6.30;2.60;;;17.40;64.60;;;;;;4488793;31;20120;-69
2023/01/30 05:16:59;;;;;;;7.18;2.25;;;17.40;64.50;;;;;;4508702;31;20185;-69
2023/01/30 05:19:25;;;;;;;7.63;2.70;;;17.40;64.50;;;;;;4492688;31;20270;-69
2023/01/30 05:21:51;;;;;;;6.70;2.42;;;17.40;64.50;;;;;;4504498;31;20140;-69
2023/01/30 05:24:17;;;;;;;7.18;2.47;;;17.40;64.50;;;;;;4495908;31;20124;-69
2023/01/30 05:26:42;;;;;;;7.38;2.55;;;17.40;64.50;;;;;;4493777;31;20183;-69
2023/01/30 05:29:09;;;;;;;8.52;2.60;;;17.40;64.40;;;;;;4493974;31;20172;-69
2023/01/30 05:31:35;;;;;;;7.80;2.30;;;17.40;64.30;;;;;;4493366;31;20182;-69
2023/01/30 05:34:00;;;;;;;9.30;2.35;;;17.40;64.30;;;;;;4481130;31;20235;-69
2023/01/30 05:36:26;;;;;;;7.28;2.58;;;17.40;64.20;;;;;;4495790;31;20125;-69
2023/01/30 05:38:52;;;;;;;6.90;2.67;;;17.40;64.10;;;;;;4497177;31;20160;-69
2023/01/30 05:41:18;;;;;;;7.18;2.38;;;17.40;65.00;;;;;;4495629;31;20597;-69
2023/01/30 05:43:48;;;;;;;6.40;2.40;;;17.50;64.10;;;;;;4509582;31;20131;-69
2023/01/30 05:46:14;;;;;;;6.00;2.35;;;17.50;64.00;;;;;;4495855;31;20124;-69
2023/01/30 05:48:40;;;;;;;6.78;2.50;;;17.50;64.00;;;;;;4497010;31;20561;-69
2023/01/30 05:51:15;;;;;;;6.80;2.50;;;17.50;64.00;;;;;;4496470;31;20140;-69
2023/01/30 05:53:41;;;;;;;7.32;2.70;;;17.50;63.90;;;;;;4495879;31;20148;-69
2023/01/30 05:56:08;;;;;;;8.98;2.78;;;17.50;63.90;;;;;;4496741;31;20129;-68
2023/01/30 05:58:34;;;;;;;7.68;2.53;;;17.50;63.90;;;;;;4495417;31;20124;-69
2023/01/30 06:01:02;;;;;;;7.57;2.60;;;17.50;63.80;;;;;;4509130;31;20124;-69
2023/01/30 06:03:28;;;;;;;7.18;2.58;;;17.50;63.90;;;;;;4495792;31;20128;-69
2023/01/30 06:05:54;;;;;;;6.93;2.40;;;17.50;63.80;;;;;;4508860;31;20137;-69
2023/01/30 06:08:20;;;;;;;6.70;2.80;;;17.50;63.70;;;;;;4508715;31;20127;-69
2023/01/30 06:10:46;;;;;;;8.40;2.88;;;17.50;63.60;;;;;;4492268;31;20109;-69
2023/01/30 06:13:12;;;;;;;7.75;2.65;;;17.50;63.60;;;;;;4483196;31;20136;-69
2023/01/30 06:15:38;;;;;;;5.47;2.45;;;17.50;63.40;;;;;;4497100;31;20202;-69
2023/01/30 06:18:04;;;;;;;6.97;2.15;;;17.50;63.40;;;;;;4499979;31;20257;-69
2023/01/30 06:20:30;;;;;;;6.22;2.47;;;17.50;63.30;;;;;;4498558;31;20140;-69
2023/01/30 06:22:55;;;;;;;6.25;2.55;;;17.60;63.30;;;;;;4499823;31;20136;-69
2023/01/30 06:25:21;;;;;;;8.20;2.20;;;17.60;63.20;;;;;;4499224;31;20116;-69
2023/01/30 06:27:47;;;;;;;7.30;2.00;;;17.60;63.20;;;;;;4511005;31;20139;-68
2023/01/30 06:30:13;;;;;;;5.95;2.58;;;17.60;63.20;;;;;;4499956;31;20205;-69
2023/01/30 06:32:40;;;;;;;7.95;2.55;;;17.60;63.10;;;;;;4498244;31;20764;-69
2023/01/30 06:35:06;;;;;;;6.93;2.55;;;17.60;63.10;;;;;;4511994;31;20136;-69
2023/01/30 06:37:32;;;;;;;8.90;2.45;;;17.60;63.10;;;;;;4498334;31;20139;-69
2023/01/30 06:39:58;;;;;;;6.10;2.47;;;17.60;63.00;;;;;;4499698;31;20121;-69
2023/01/30 06:42:23;;;;;;;8.63;2.65;;;17.60;63.00;;;;;;4511027;31;20125;-69
2023/01/30 06:44:49;;;;;;;5.68;2.22;;;17.60;63.00;;;;;;4495098;31;20141;-69
2023/01/30 06:47:15;;;;;;;9.63;2.40;;;17.60;63.00;;;;;;4493666;31;20116;-68
2023/01/30 06:49:41;;;;;;;6.63;2.30;;;17.60;63.00;;;;;;4497979;31;20116;-69
2023/01/30 06:52:08;;;;;;;7.28;2.20;;;17.60;63.10;;;;;;4499723;31;20587;-69
2023/01/30 06:54:34;;;;;;;8.75;2.50;;;17.60;63.00;;;;;;4497903;31;20178;-69
2023/01/30 06:57:00;;;;;;;7.68;2.40;;;17.60;63.00;;;;;;4469299;32;20168;-69
2023/01/30 06:59:25;;;;;;;6.38;2.58;;;17.60;63.00;;;;;;4491515;31;20195;-69
2023/01/30 07:01:52;;;;;;;8.63;2.28;;;17.60;63.10;;;;;;4497143;31;20129;-69
2023/01/30 07:04:17;;;;;;;8.18;2.50;;;17.60;63.00;;;;;;4499448;31;20140;-69
2023/01/30 07:06:44;;;;;;;6.18;2.13;;;17.60;63.00;;;;;;4510223;31;20154;-69
2023/01/30 07:09:10;;;;;;;9.82;2.40;;;17.60;63.00;;;;;;4511306;31;20129;-68
2023/01/30 07:11:36;;;;;;;7.32;2.30;;;17.60;63.00;;;;;;4509974;31;20182;-69
2023/01/30 07:14:02;;;;;;;5.43;1.98;;;17.60;63.00;;;;;;4499017;31;20137;-69
2023/01/30 07:16:28;;;;;;;6.80;2.88;;;17.60;63.00;;;;;;4510202;31;20132;-69
2023/01/30 07:18:57;;;;;;;10.00;2.85;;;17.60;63.00;;;;;;4510785;31;20573;-69
2023/01/30 07:21:24;;;;;;;5.85;2.35;;;17.60;62.90;;;;;;4499010;31;20128;-69
2023/01/30 07:23:50;;;;;;;7.03;2.17;;;17.60;63.00;;;;;;4496576;31;20136;-69
2023/01/30 07:26:16;;;;;;;7.43;2.20;;;17.60;63.00;;;;;;4499119;31;20485;-69
2023/01/30 07:28:42;;;;;;;7.32;2.13;;;17.60;62.90;;;;;;4509324;31;20141;-69
2023/01/30 07:31:07;;;;;;;7.85;2.35;;;17.60;62.90;;;;;;4488788;31;20155;-69
2023/01/30 07:33:33;;;;;;;5.45;2.10;;;17.60;62.90;;;;;;4495540;31;20172;-69
2023/01/30 07:35:59;;;;;;;8.00;2.53;;;17.60;62.90;;;;;;4489068;31;20146;-69
2023/01/30 07:38:25;;;;;;;6.63;2.45;;;17.60;62.80;;;;;;4484517;31;20128;-70
2023/01/30 07:40:51;;;;;;;5.32;2.15;;;17.60;62.90;;;;;;4509205;31;20557;-70
2023/01/30 07:43:17;;;;;;;7.93;2.47;;;17.60;62.90;;;;;;4497164;31;20121;-69
2023/01/30 07:45:45;;;;;;;9.52;2.90;;;17.60;62.80;;;;;;4484145;31;20140;-70
2023/01/30 07:48:13;;;;;;;9.25;2.67;;;17.60;62.50;;;;;;4497313;31;20148;-69
2023/01/30 07:50:39;;;;;;;8.18;3.25;;;17.60;62.60;;;;;;4497140;31;20670;-70
2023/01/30 07:53:09;;;;;;;9.25;2.92;;;17.60;62.70;;;;;;4497428;31;20628;-69
2023/01/30 07:55:35;;;;;;;10.98;2.70;;;17.60;62.50;;;;;;4496725;31;20482;-69
2023/01/30 07:58:01;;;;;;;12.65;2.90;;;17.70;62.10;;;;;;4496624;31;20117;-70
2023/01/30 08:00:27;;;;;;;10.38;2.75;;;17.80;61.70;;;;;;4484567;31;20182;-69
2023/01/30 08:02:53;;;;;;;9.80;2.67;;;18.00;61.40;;;;;;4491486;31;20140;-69
2023/01/30 08:05:19;;;;;;;9.77;2.95;;;18.10;61.00;;;;;;4485197;31;20123;-69
2023/01/30 08:07:46;;;;;;;10.07;2.60;;;18.30;60.70;;;;;;4496908;31;20131;-69
2023/01/30 08:10:13;;;;;;;9.10;2.60;;;18.40;60.30;;;;;;4509460;31;20190;-69
2023/01/30 08:12:40;;;;;;;8.60;2.63;;;18.60;60.00;;;;;;4497453;31;20142;-68
2023/01/30 08:15:07;;;;;;;6.95;2.22;;;18.70;59.70;;;;;;4497242;31;20128;-69
2023/01/30 08:17:33;;;;;;;8.13;2.45;;;18.80;59.30;;;;;;4498246;31;20174;-68
2023/01/30 08:19:59;;;;;;;10.15;2.80;;;19.00;59.00;;;;;;4496548;31;20137;-69
2023/01/30 08:22:25;;;;;;;9.77;2.92;;;19.10;58.70;;;;;;4498271;31;20136;-69
2023/01/30 08:24:50;;;;;;;10.95;2.80;;;19.20;58.30;;;;;;4496861;31;20117;-68
2023/01/30 08:27:16;;;;;;;8.63;2.58;;;19.40;58.10;;;;;;4497756;31;20128;-68
2023/01/30 08:29:43;;;;;;;9.55;2.70;;;19.40;57.80;;;;;;4497372;31;20264;-69
2023/01/30 08:32:09;;;;;;;8.90;2.47;;;19.50;57.70;;;;;;4496939;31;20128;-68
2023/01/30 08:34:35;;;;;;;9.75;2.63;;;19.50;57.50;;;;;;4497625;31;20132;-69
2023/01/30 08:37:01;;;;;;;9.05;2.70;;;19.60;57.40;;;;;;4487003;31;20132;-69
2023/01/30 08:39:27;;;;;;;8.50;3.13;;;19.60;57.30;;;;;;4496823;31;20128;-70
2023/01/30 08:41:52;;;;;;;10.15;2.60;;;19.60;57.20;;;;;;4496409;31;20139;-68
2023/01/30 08:44:18;;;;;;;10.50;2.83;;;19.70;57.30;;;;;;4497388;31;20267;-67
2023/01/30 08:46:44;;;;;;;18.13;3.13;;;19.70;57.30;;;;;;4496903;31;20186;-67
2023/01/30 08:49:10;;;;;;;9.45;2.90;;;19.70;57.30;;;;;;4496757;31;20125;-67
2023/01/30 08:51:36;;;;;;;9.25;2.70;;;19.70;57.30;;;;;;4496581;31;20259;-67
2023/01/30 08:54:06;;;;;;;11.00;2.90;;;19.70;57.20;;;;;;4489711;31;20136;-67
2023/01/30 08:56:32;;;;;;;8.63;2.63;;;19.70;57.20;;;;;;4497180;31;20246;-67
2023/01/30 08:58:58;;;;;;;10.85;2.75;;;19.70;57.20;;;;;;4493552;31;20152;-67
2023/01/30 09:01:24;;;;;;;9.13;2.58;;;19.80;57.20;;;;;;4483068;31;20304;-67
2023/01/30 09:03:50;;;;;;;9.25;3.13;;;19.80;57.20;;;;;;4482035;31;20135;-67
2023/01/30 09:06:15;;;;;;;8.90;2.75;;;19.80;57.10;;;;;;4508380;31;20124;-67
2023/01/30 09:08:41;;;;;;;7.72;2.60;;;19.80;57.10;;;;;;4486217;31;20212;-67
2023/01/30 09:11:09;;;;;;;10.55;2.90;;;19.80;57.00;;;;;;4495462;31;20188;-66
2023/01/30 09:13:35;;;;;;;10.85;2.70;;;19.80;57.10;;;;;;4496909;31;20269;-67
2023/01/30 09:16:01;;;;;;;9.57;2.67;;;19.80;57.00;;;;;;4482233;31;20575;-67
2023/01/30 09:18:26;;;;;;;10.43;2.95;;;19.80;57.00;;;;;;4496394;31;20135;-66
2023/01/30 09:21:01;;;;;;;10.68;3.03;;;19.80;57.00;;;;;;4508239;31;20156;-67
2023/01/30 09:23:27;;;;;;;10.93;2.67;;;19.80;57.00;;;;;;4483991;31;20482;-67
2023/01/30 09:25:53;;;;;;;8.00;2.83;;;19.90;57.00;;;;;;4496731;31;20145;-67
2023/01/30 09:28:19;;;;;;;10.45;3.53;;;19.80;56.90;;;;;;4495307;31;20143;-66
2023/01/30 09:30:44;;;;;;;9.20;2.50;;;19.80;56.90;;;;;;4496994;31;20346;-66
2023/01/30 09:33:10;;;;;;;9.73;2.60;;;19.90;56.90;;;;;;4482094;31;20613;-67
2023/01/30 09:35:36;;;;;;;9.23;2.63;;;19.90;56.90;;;;;;4496530;31;20174;-66
2023/01/30 09:38:04;;;;;;;12.90;3.30;;;19.90;56.90;;;;;;4481467;31;20127;-67
2023/01/30 09:40:31;;;;;;;10.25;3.25;;;19.90;56.80;;;;;;4496040;31;20144;-67
2023/01/30 09:43:06;;;;;;;10.43;3.42;;;19.90;56.80;;;;;;4486991;31;20140;-67
2023/01/30 09:45:32;;;;;;;10.02;3.03;;;19.90;56.70;;;;;;4492656;31;20132;-67
2023/01/30 09:48:21;;;;;;;9.43;3.33;;;19.90;56.60;;;;;;4496665;31;20134;-67
2023/01/30 09:51:10;;;;;;;9.68;3.00;;;19.90;56.70;;;;;;4495656;32;20144;-67
2023/01/30 09:54:02;;;;;;;9.40;2.63;;;19.90;56.60;;;;;;4491514;32;20266;-67
2023/01/30 09:56:29;;;;;;;8.88;2.67;;;19.90;56.70;;;;;;4496299;32;20155;-66
2023/01/30 09:59:01;;;;;;;10.38;2.70;;;19.90;56.60;;;;;;4507743;31;20128;-68
2023/01/30 10:01:54;;;;;;;9.45;3.00;;;19.90;56.70;;;;;;4496946;31;20128;-67
2023/01/30 10:04:35;;;;;;;8.67;2.80;;;19.90;56.80;;;;;;4509329;31;20465;-68
2023/01/30 10:07:10;;;;;;;14.68;3.47;;;19.90;56.60;;;;;;4495216;31;20133;-69
2023/01/30 10:09:48;;;;;;;11.10;3.72;;;19.90;56.60;;;;;;4496443;32;20581;-68
2023/01/30 10:12:38;;;;;;;9.70;3.15;;;20.00;56.70;;;;;;4507820;31;20175;-69
2023/01/30 10:15:18;;;;;;;8.88;2.75;;;19.90;56.80;;;;;;4495303;31;20182;-67
2023/01/30 10:17:50;;;;;;;11.65;3.25;;;20.00;56.80;;;;;;4494890;32;20144;-66
2023/01/30 10:20:43;;;;;;;10.70;3.28;;;19.90;56.90;;;;;;4495387;32;20133;-69
2023/01/30 10:23:34;;;;;;;12.37;3.17;;;20.00;57.00;;;;;;4496394;32;20133;-68
2023/01/30 10:26:20;;;;;;;9.55;2.75;;;20.00;56.90;;;;;;4496252;32;20171;-69
2023/01/30 10:28:55;;;;;;;9.63;2.85;;;20.00;57.00;;;;;;4494821;32;20147;-70
2023/01/30 10:31:25;;;;;;;14.32;3.70;;;20.10;57.00;;;;;;4494813;32;20157;-69
2023/01/30 10:33:50;;;;;;;12.43;3.10;;;20.00;57.00;;;;;;4507443;31;20137;-69
2023/01/30 10:36:55;;;;;;;12.23;3.75;;;20.10;56.90;;;;;;4495388;32;20120;-69
2023/01/30 10:39:31;;;;;;;8.77;3.00;;;20.00;57.00;;;;;;4494834;32;20506;-68
2023/01/30 10:42:13;;;;;;;9.70;3.15;;;20.00;57.00;;;;;;4494644;31;20188;-67
2023/01/30 10:44:41;;;;;;;7.70;3.00;;;20.10;57.00;;;;;;4495172;32;20326;-68
2023/01/30 10:47:33;;;;;;;12.00;3.00;;;20.00;57.00;;;;;;4494223;32;20542;-68
2023/01/30 10:50:10;;;;;;;11.73;3.35;;;20.10;57.00;;;;;;4485915;31;20146;-68
2023/01/30 10:52:58;;;;;;;11.35;3.20;;;20.00;56.90;;;;;;4495680;31;20154;-68
2023/01/30 10:55:54;;;;;;;11.55;2.72;;;20.00;56.80;;;;;;4492074;31;20151;-68
2023/01/30 10:59:04;;;;;;;10.77;3.15;;;20.00;56.90;;;;;;4499445;31;20675;-68
2023/01/30 11:01:44;;;;;;;12.02;3.40;;;20.00;56.90;;;;;;4495749;31;20313;-68
2023/01/30 11:04:30;;;;;;;10.45;3.03;;;20.00;56.80;;;;;;4495765;31;20247;-69
2023/01/30 11:06:58;;;;;;;11.40;2.80;;;20.10;56.90;;;;;;4485940;31;20151;-68
2023/01/30 11:09:46;;;;;;;8.43;2.80;;;20.10;56.90;;;;;;4485333;31;20152;-68
2023/01/30 11:12:13;;;;;;;9.70;2.78;;;20.00;56.80;;;;;;4496485;31;20146;-69
2023/01/30 11:14:52;;;;;;;11.75;3.42;;;20.00;56.80;;;;;;4486582;31;20116;-68
2023/01/30 11:17:20;;;;;;;9.15;2.92;;;20.10;56.90;;;;;;4490455;31;20290;-67
2023/01/30 11:19:54;;;;;;;10.18;2.85;;;20.00;56.90;;;;;;4492064;31;20582;-68
2023/01/30 11:22:24;;;;;;;12.20;2.92;;;20.00;57.00;;;;;;4495316;31;20121;-67
2023/01/30 11:25:19;;;;;;;7.78;2.60;;;20.00;57.00;;;;;;4490899;31;20128;-68
2023/01/30 11:27:53;;;;;;;10.15;3.17;;;20.10;57.10;;;;;;4490514;31;20486;-67
2023/01/30 11:30:23;;;;;;;10.10;2.72;;;20.00;57.10;;;;;;4488304;31;20167;-68
2023/01/30 11:32:49;;;;;;;9.05;3.10;;;20.00;57.10;;;;;;4486542;31;20140;-68
2023/01/30 11:35:28;;;;;;;10.38;2.78;;;20.00;57.10;;;;;;4482967;31;20132;-67
2023/01/30 11:38:12;;;;;;;10.45;2.50;;;20.00;57.20;;;;;;4493618;31;20163;-66
2023/01/30 11:40:40;;;;;;;9.10;3.20;;;20.00;57.10;;;;;;4491176;31;20185;-67
2023/01/30 11:43:11;;;;;;;8.40;2.70;;;20.00;57.20;;;;;;4493361;31;20187;-68
2023/01/30 11:45:40;;;;;;;9.32;2.70;;;20.00;57.20;;;;;;4481719;31;20486;-67
2023/01/30 11:48:18;;;;;;;9.82;2.63;;;20.00;57.20;;;;;;4496215;31;20113;-67
2023/01/30 11:50:47;;;;;;;9.50;2.88;;;20.00;57.20;;;;;;4494516;31;20196;-66
2023/01/30 11:53:25;;;;;;;9.38;2.95;;;20.00;57.20;;;;;;4494697;31;20291;-67
2023/01/30 11:55:56;;;;;;;10.25;2.70;;;20.10;57.20;;;;;;4482834;31;20699;-67
2023/01/30 11:58:23;;;;;;;8.80;2.33;;;20.00;57.10;;;;;;4493687;31;20132;-67
2023/01/30 12:00:50;;;;;;;10.10;2.70;;;20.10;57.20;;;;;;4483910;31;20136;-68
2023/01/30 12:03:21;;;;;;;6.70;2.65;;;20.10;57.10;;;;;;4496848;31;20136;-67
2023/01/30 12:05:47;;;;;;;9.20;2.55;;;20.10;57.20;;;;;;4497715;31;20181;-67
2023/01/30 12:08:19;;;;;;;8.85;2.90;;;20.10;57.20;;;;;;4496868;31;20488;-67
2023/01/30 12:10:58;;;;;;;10.55;3.03;;;20.10;56.90;;;;;;4493943;31;20129;-67
2023/01/30 12:13:42;;;;;;;7.80;2.47;;;20.10;56.80;;;;;;4498199;31;20113;-67
2023/01/30 12:16:21;;;;;;;12.63;3.08;;;20.10;56.80;;;;;;4496828;31;20139;-67
2023/01/30 12:18:53;;;;;;;11.13;2.88;;;20.10;56.80;;;;;;4496956;31;20187;-65
2023/01/30 12:21:43;;;;;;;9.68;2.70;;;20.10;56.90;;;;;;4498067;31;20116;-67
2023/01/30 12:24:21;;;;;;;11.88;2.83;;;20.10;56.60;;;;;;4496152;31;20121;-68
2023/01/30 12:26:52;;;;;;;13.25;3.00;;;20.10;56.60;;;;;;4496986;31;20129;-68
2023/01/30 12:29:56;;;;;;;14.30;2.63;;;20.10;56.30;;;;;;4497759;31;20184;-67
2023/01/30 12:32:26;;;;;;;9.48;2.53;;;20.10;56.20;;;;;;4488894;31;20164;-68
2023/01/30 12:34:52;;;;;;;14.18;2.85;;;20.10;56.10;;;;;;4483880;31;20131;-68
2023/01/30 12:37:30;;;;;;;16.50;3.92;;;20.10;56.00;;;;;;4495054;31;20557;-67
2023/01/30 12:40:10;;;;;;;9.23;3.10;;;20.10;55.80;;;;;;4481134;31;20152;-67
2023/01/30 12:43:21;;;;;;;12.63;3.30;;;20.10;55.70;;;;;;4495526;31;20140;-68
2023/01/30 12:46:06;;;;;;;12.32;2.72;;;20.20;55.60;;;;;;4494752;31;20141;-68
2023/01/30 12:48:47;;;;;;;11.68;2.85;;;20.20;55.50;;;;;;4497245;31;20230;-67
2023/01/30 12:51:22;;;;;;;11.00;2.50;;;20.20;55.60;;;;;;4497092;31;20190;-67
2023/01/30 12:53:50;;;;;;;10.05;3.05;;;20.20;55.70;;;;;;4485001;31;20137;-68
2023/01/30 12:56:16;;;;;;;8.82;2.80;;;20.20;55.80;;;;;;4491393;31;20151;-68
2023/01/30 12:59:02;;;;;;;9.63;2.83;;;20.20;55.90;;;;;;4487741;31;20148;-68
2023/01/30 13:01:43;;;;;;;17.30;3.22;;;20.20;56.10;;;;;;4495051;31;20183;-68
2023/01/30 13:04:12;;;;;;;13.07;2.95;;;20.20;56.10;;;;;;4494060;31;20145;-69
2023/01/30 13:06:59;;;;;;;14.40;3.22;;;20.20;56.20;;;;;;4488025;31;20163;-67
2023/01/30 13:10:03;;;;;;;11.02;3.17;;;20.30;56.40;;;;;;4491017;31;20183;-67